DATI METEO

IERI
Time Temp. P.to rug.. Umid. Press.
00:07 2.3 1 91 1006.5
00:17 2.3 1 91 1006.2
00:27 2.3 1 91 1006
00:47 2.3 1.1 92 1005.9
00:58 2.3 1.1 92 1005.8
01:08 2.4 1.2 92 1005.9
01:18 2.4 1.2 92 1006
01:28 2.4 1.2 92 1006
01:38 2.5 1.3 92 1005.7
01:48 2.5 1.3 92 1005.6
01:58 2.5 1.3 92 1005.8
02:09 2.5 1.5 93 1005.5
02:19 2.6 1.4 92 1005.7
02:28 2.6 1.4 92 1005.1
02:38 2.6 1 89 1004.5
02:49 2.6 0.8 88 1004.3
02:59 2.5 0.9 89 1004.2
03:09 2.5 0.7 88 1004.1
03:19 2.6 0.5 86 1003.8
03:29 2.6 0.7 87 1004.2
03:39 2.7 0.8 87 1004.3
03:49 2.6 1 89 1004.3
04:00 2.5 1 90 1004.1
04:10 2.5 1 90 1004.1
04:19 2.6 1.3 91 1004.2
04:30 2.6 1.4 92 1004.1
04:40 2.5 1.5 93 1004.2
04:50 2.5 1.6 94 1004.6
04:59 2.6 1.7 94 1004.8
05:10 2.6 1.7 94 1004.6
05:20 2.7 1.8 94 1004.6
05:30 2.7 2 95 1004.5
05:41 2.8 2.1 95 1004.9
05:51 2.8 2.1 95 1004.8
06:00 2.8 2.1 95 1004.6
06:10 2.8 2.1 95 1004.5
06:21 2.9 2.2 95 1004.9
06:31 2.9 2.2 95 1004.8
06:41 2.9 2.2 95 1004.8
06:51 2.9 2.2 95 1004.8
07:01 2.9 2 94 1004.6
07:11 2.9 2 94 1004.1
07:21 2.9 2 94 1004.1
07:32 2.9 2 94 1003.9
07:42 2.8 2.1 95 1003.7
07:52 2.8 2.2 96 1003.8
08:01 2.9 2.3 96 1003.9
08:12 3 2.4 96 1004.1
08:22 3 2.4 96 1003.9
08:32 3.1 2.5 96 1003.8
08:43 3.2 2.8 97 1003.7
08:53 3.3 2.9 97 1003.5
09:02 3.4 3 97 1003.9
09:12 3.3 2.7 96 1003.9
09:23 3.4 2.8 96 1003.8
09:33 3.4 2.8 96 1003.9
09:43 3.5 2.9 96 1004.2
09:53 3.5 2.8 95 1003.8
10:03 3.6 2.9 95 1003.9
10:13 3.7 3 95 1003.4
10:23 3.8 3.1 95 1003.6
10:34 3.7 3 95 1003.6
10:44 3.6 2.9 95 1003.5
10:54 3.6 2.7 94 1003.2
11:03 3.6 2.7 94 1002.9
11:14 3.6 2.7 94 1002.8
11:24 3.6 2.4 92 1002.4
11:34 3.6 2.4 92 1002.2
11:45 3.7 2.4 91 1001.8
11:54 3.8 2.5 91 1001.8
12:04 3.8 2.3 90 1001.7
12:14 3.8 2.2 89 1001.3
12:25 3.8 2 88 1001.4
12:35 3.9 2.1 88 1001.5
12:44 3.9 1.9 87 1001.5
12:55 3.9 2.1 88 1001.6
13:05 3.8 2.2 89 1001.3
13:15 3.8 2.3 90 1001.1
13:25 3.8 2.5 91 1001
13:35 3.9 2.6 91 1000.8
13:51 3.9 2.6 91 999.9
14:01 3.8 2.6 92 1000
14:11 3.8 2.8 93 1000.5
14:22 3.7 2.7 93 1000.6
14:32 3.8 2.8 93 1000.5
14:42 3.8 2.9 94 1000.3
14:52 3.8 2.9 94 1000.5
15:02 3.9 3.2 95 1000
15:12 3.9 3.2 95 999.6
15:22 4 3.3 95 999.9
15:33 4 3.1 94 999.8
15:42 4 3.1 94 999.6
15:52 4 3.3 95 999.1
16:03 4 3.1 94 998.8
16:13 4 3.1 94 998.7
16:23 4 3.1 94 998.8
16:32 4 3.3 95 998.8
16:43 4.1 3.4 95 998.6
16:53 4.1 3.4 95 998.4
17:03 4.1 3.4 95 998.7
17:13 4.1 3.4 95 998.9
17:24 4 3.3 95 999.2
17:33 3.9 3.2 95 998.7
17:43 3.9 3.2 95 998.8
17:54 3.9 3.2 95 998.6
18:04 3.8 3.1 95 999.5
18:14 3.6 2.7 94 999.5
18:24 3.5 2.6 94 999.2
18:34 3.5 2.6 94 999.3
18:44 3.4 2.5 94 999.4
18:54 3.5 2.6 94 998.8
19:05 3.4 2.5 94 998.8
19:14 3.4 2.4 93 998.7
19:24 3.4 2.4 93 998.7
19:34 3.3 2.3 93 998.6
19:45 3.2 2.2 93 998.2
19:55 3.4 2.7 95 997.5
20:10 3.6 3 96 998.2
20:20 3.3 2.4 94 999.6
20:27 2.9 1.9 93 999.8
20:36 2.7 1.5 92 999.6
20:46 2.5 1.2 91 999.9
20:57 2.3 1 91 999.5
21:07 2.2 0.9 91 999.5
21:17 2.1 0.8 91 999.5
21:27 2.1 0.9 92 999.4
21:37 2.1 1.1 93 998.9
21:47 2.3 1.6 95 998.7
21:57 2.5 1.9 96 998.5
22:07 2.6 2 96 997.9
22:18 2.7 2 95 998
22:28 2.7 2 95 998.2
22:37 2.6 1.6 93 998.4
22:48 2.6 1.6 93 998.1
22:58 2.6 1.6 93 998.5
23:08 2.5 1.6 94 998.8
23:18 2.5 1.6 94 998.8
23:28 2.6 1.7 94 998.9
23:38 2.6 1.7 94 999.5
23:48 2.6 1.9 95 999.6

STATISTICHE GIORNALIERE

2021-01-24
TEMPERATURA
MEDIA
3.1
MASSIMA
4.1
16:43
MINIMA
2.1
21:17
PRESSIONE
MEDIA
1001.9
MASSIMA
1006.5
00:07
MINIMA
997.5
19:55
PUNTO DI RUGIADA
MEDIA
2.1
MASSIMA
3.4
16:43
MINIMA
0.5
03:19
UMIDITÀ
MEDIA
93
MASSIMA
97
08:43
MINIMA
86
03:19
TEMPERATURA (°C)
MINIMA
2.1
MASSIMA
4.1
MEDIA
3.1
PRESSIONE (hpa)
MINIMA
997.5
MASSIMA
1006.5
MEDIA
1001.9
DEVICE